sensor_id;sensor_type;location;lat;lon;timestamp;P1;P2;P0
64229;PMS5003;50547;49.498;0.092;2024-02-26T00:01:45;9;9;
64229;PMS5003;50547;49.498;0.092;2024-02-26T00:04:15;10;10;
64229;PMS5003;50547;49.498;0.092;2024-02-26T00:06:44;10;10;
64229;PMS5003;50547;49.498;0.092;2024-02-26T00:09:14;11;11;
64229;PMS5003;50547;49.498;0.092;2024-02-26T00:11:43;13;13;
64229;PMS5003;50547;49.498;0.092;2024-02-26T00:14:15;13;13;
64229;PMS5003;50547;49.498;0.092;2024-02-26T00:16:47;11;11;
64229;PMS5003;50547;49.498;0.092;2024-02-26T00:19:17;11;11;
64229;PMS5003;50547;49.498;0.092;2024-02-26T00:21:46;10;10;
64229;PMS5003;50547;49.498;0.092;2024-02-26T00:24:12;10;10;
64229;PMS5003;50547;49.498;0.092;2024-02-26T00:26:42;10;10;
64229;PMS5003;50547;49.498;0.092;2024-02-26T00:29:11;8;8;
64229;PMS5003;50547;49.498;0.092;2024-02-26T00:31:40;8;8;
64229;PMS5003;50547;49.498;0.092;2024-02-26T00:34:09;6;6;
64229;PMS5003;50547;49.498;0.092;2024-02-26T00:36:38;7;7;
64229;PMS5003;50547;49.498;0.092;2024-02-26T00:39:07;6;6;
64229;PMS5003;50547;49.498;0.092;2024-02-26T00:41:38;5;5;
64229;PMS5003;50547;49.498;0.092;2024-02-26T00:44:07;5;5;
64229;PMS5003;50547;49.498;0.092;2024-02-26T00:46:36;4;4;
64229;PMS5003;50547;49.498;0.092;2024-02-26T00:49:05;4;4;
64229;PMS5003;50547;49.498;0.092;2024-02-26T00:51:35;3;3;
64229;PMS5003;50547;49.498;0.092;2024-02-26T00:54:04;3;3;
64229;PMS5003;50547;49.498;0.092;2024-02-26T00:56:33;4;4;
64229;PMS5003;50547;49.498;0.092;2024-02-26T00:59:02;3;3;
64229;PMS5003;50547;49.498;0.092;2024-02-26T01:01:31;3;3;
64229;PMS5003;50547;49.498;0.092;2024-02-26T01:04:00;4;4;
64229;PMS5003;50547;49.498;0.092;2024-02-26T01:06:30;1;1;
64229;PMS5003;50547;49.498;0.092;2024-02-26T01:08:59;2;2;
64229;PMS5003;50547;49.498;0.092;2024-02-26T01:11:28;2;2;
64229;PMS5003;50547;49.498;0.092;2024-02-26T01:13:57;3;3;
64229;PMS5003;50547;49.498;0.092;2024-02-26T01:16:26;3;3;
64229;PMS5003;50547;49.498;0.092;2024-02-26T01:18:56;3;3;
64229;PMS5003;50547;49.498;0.092;2024-02-26T01:21:25;3;3;
64229;PMS5003;50547;49.498;0.092;2024-02-26T01:23:54;3;3;
64229;PMS5003;50547;49.498;0.092;2024-02-26T01:26:23;3;3;
64229;PMS5003;50547;49.498;0.092;2024-02-26T01:28:52;3;3;
64229;PMS5003;50547;49.498;0.092;2024-02-26T01:31:22;3;3;
64229;PMS5003;50547;49.498;0.092;2024-02-26T01:33:51;3;3;
64229;PMS5003;50547;49.498;0.092;2024-02-26T01:36:20;3;3;
64229;PMS5003;50547;49.498;0.092;2024-02-26T10:35:45;5;5;
64229;PMS5003;50547;49.498;0.092;2024-02-26T10:38:14;5;5;
64229;PMS5003;50547;49.498;0.092;2024-02-26T10:40:43;4;4;
64229;PMS5003;50547;49.498;0.092;2024-02-26T10:43:12;4;4;
64229;PMS5003;50547;49.498;0.092;2024-02-26T10:45:42;4;4;
64229;PMS5003;50547;49.498;0.092;2024-02-26T10:48:12;4;4;
64229;PMS5003;50547;49.498;0.092;2024-02-26T10:50:43;4;4;
64229;PMS5003;50547;49.498;0.092;2024-02-26T10:53:13;5;5;
64229;PMS5003;50547;49.498;0.092;2024-02-26T10:58:13;5;5;
64229;PMS5003;50547;49.498;0.092;2024-02-26T11:00:45;4;4;
64229;PMS5003;50547;49.498;0.092;2024-02-26T11:03:15;4;4;
64229;PMS5003;50547;49.498;0.092;2024-02-26T11:05:44;5;5;
64229;PMS5003;50547;49.498;0.092;2024-02-26T11:08:15;6;6;
64229;PMS5003;50547;49.498;0.092;2024-02-26T11:10:46;7;7;
64229;PMS5003;50547;49.498;0.092;2024-02-26T11:13:17;6;6;
64229;PMS5003;50547;49.498;0.092;2024-02-26T11:15:47;7;7;
64229;PMS5003;50547;49.498;0.092;2024-02-26T11:18:17;6;6;
64229;PMS5003;50547;49.498;0.092;2024-02-26T11:20:48;6;6;
64229;PMS5003;50547;49.498;0.092;2024-02-26T11:23:18;7;7;
64229;PMS5003;50547;49.498;0.092;2024-02-26T11:25:47;7;7;
64229;PMS5003;50547;49.498;0.092;2024-02-26T11:28:18;6;6;
64229;PMS5003;50547;49.498;0.092;2024-02-26T11:30:48;5;5;
64229;PMS5003;50547;49.498;0.092;2024-02-26T11:33:18;5;5;
64229;PMS5003;50547;49.498;0.092;2024-02-26T11:35:48;7;7;
64229;PMS5003;50547;49.498;0.092;2024-02-26T11:38:17;7;7;
64229;PMS5003;50547;49.498;0.092;2024-02-26T11:40:48;7;7;
64229;PMS5003;50547;49.498;0.092;2024-02-26T11:43:18;7;7;
64229;PMS5003;50547;49.498;0.092;2024-02-26T11:45:51;7;7;
64229;PMS5003;50547;49.498;0.092;2024-02-26T11:48:21;7;7;
64229;PMS5003;50547;49.498;0.092;2024-02-26T11:50:52;8;8;
64229;PMS5003;50547;49.498;0.092;2024-02-26T11:53:23;10;10;
64229;PMS5003;50547;49.498;0.092;2024-02-26T11:56:25;10;10;
64229;PMS5003;50547;49.498;0.092;2024-02-26T11:58:57;8;8;
64229;PMS5003;50547;49.498;0.092;2024-02-26T12:01:44;8;8;
64229;PMS5003;50547;49.498;0.092;2024-02-26T12:04:15;7;7;
64229;PMS5003;50547;49.498;0.092;2024-02-26T12:06:47;8;8;
64229;PMS5003;50547;49.498;0.092;2024-02-26T12:09:37;7;7;
64229;PMS5003;50547;49.498;0.092;2024-02-26T12:12:06;8;8;
64229;PMS5003;50547;49.498;0.092;2024-02-26T12:14:37;7;7;
64229;PMS5003;50547;49.498;0.092;2024-02-26T12:17:07;7;7;
64229;PMS5003;50547;49.498;0.092;2024-02-26T12:19:43;7;7;
64229;PMS5003;50547;49.498;0.092;2024-02-26T12:22:13;7;7;
64229;PMS5003;50547;49.498;0.092;2024-02-26T12:24:42;8;8;
64229;PMS5003;50547;49.498;0.092;2024-02-26T12:27:12;8;8;
64229;PMS5003;50547;49.498;0.092;2024-02-26T12:29:40;7;7;
64229;PMS5003;50547;49.498;0.092;2024-02-26T12:32:10;8;8;
64229;PMS5003;50547;49.498;0.092;2024-02-26T12:34:39;7;7;
64229;PMS5003;50547;49.498;0.092;2024-02-26T12:37:08;8;8;
64229;PMS5003;50547;49.498;0.092;2024-02-26T12:39:37;7;7;
64229;PMS5003;50547;49.498;0.092;2024-02-26T12:42:07;7;7;
64229;PMS5003;50547;49.498;0.092;2024-02-26T12:44:36;6;6;
64229;PMS5003;50547;49.498;0.092;2024-02-26T12:47:06;7;7;
64229;PMS5003;50547;49.498;0.092;2024-02-26T12:49:35;8;8;
64229;PMS5003;50547;49.498;0.092;2024-02-26T12:52:04;7;7;
64229;PMS5003;50547;49.498;0.092;2024-02-26T12:54:34;7;7;
64229;PMS5003;50547;49.498;0.092;2024-02-26T12:57:18;7;7;
64229;PMS5003;50547;49.498;0.092;2024-02-26T12:59:47;8;8;
64229;PMS5003;50547;49.498;0.092;2024-02-26T13:02:16;7;7;
64229;PMS5003;50547;49.498;0.092;2024-02-26T13:04:45;7;7;
64229;PMS5003;50547;49.498;0.092;2024-02-26T13:07:14;7;7;
64229;PMS5003;50547;49.498;0.092;2024-02-26T13:09:43;7;7;
64229;PMS5003;50547;49.498;0.092;2024-02-26T13:12:12;5;5;
64229;PMS5003;50547;49.498;0.092;2024-02-26T13:14:41;7;7;
64229;PMS5003;50547;49.498;0.092;2024-02-26T13:17:10;7;7;
64229;PMS5003;50547;49.498;0.092;2024-02-26T13:19:48;7;7;
64229;PMS5003;50547;49.498;0.092;2024-02-26T13:22:17;7;7;
64229;PMS5003;50547;49.498;0.092;2024-02-26T13:24:57;7;7;
64229;PMS5003;50547;49.498;0.092;2024-02-26T13:27:26;8;8;
64229;PMS5003;50547;49.498;0.092;2024-02-26T13:30:11;7;7;
64229;PMS5003;50547;49.498;0.092;2024-02-26T13:32:41;7;7;
64229;PMS5003;50547;49.498;0.092;2024-02-26T13:35:10;7;7;
64229;PMS5003;50547;49.498;0.092;2024-02-26T13:37:40;6;6;
64229;PMS5003;50547;49.498;0.092;2024-02-26T13:40:10;7;7;
64229;PMS5003;50547;49.498;0.092;2024-02-26T13:42:39;7;7;
64229;PMS5003;50547;49.498;0.092;2024-02-26T13:45:08;5;5;
64229;PMS5003;50547;49.498;0.092;2024-02-26T13:47:37;7;7;
64229;PMS5003;50547;49.498;0.092;2024-02-26T13:50:07;8;8;
64229;PMS5003;50547;49.498;0.092;2024-02-26T13:52:36;7;7;
64229;PMS5003;50547;49.498;0.092;2024-02-26T13:55:05;8;8;
64229;PMS5003;50547;49.498;0.092;2024-02-26T13:57:35;7;7;
64229;PMS5003;50547;49.498;0.092;2024-02-26T14:00:04;6;6;
64229;PMS5003;50547;49.498;0.092;2024-02-26T14:02:34;7;7;
64229;PMS5003;50547;49.498;0.092;2024-02-26T14:05:03;7;7;
64229;PMS5003;50547;49.498;0.092;2024-02-26T14:07:32;6;6;
64229;PMS5003;50547;49.498;0.092;2024-02-26T14:10:01;5;5;
64229;PMS5003;50547;49.498;0.092;2024-02-26T14:12:30;5;5;
64229;PMS5003;50547;49.498;0.092;2024-02-26T14:14:59;7;7;
64229;PMS5003;50547;49.498;0.092;2024-02-26T14:17:28;5;5;
64229;PMS5003;50547;49.498;0.092;2024-02-26T14:19:57;7;7;
64229;PMS5003;50547;49.498;0.092;2024-02-26T14:22:26;6;6;
64229;PMS5003;50547;49.498;0.092;2024-02-26T14:24:55;6;6;
64229;PMS5003;50547;49.498;0.092;2024-02-26T14:27:23;7;7;
64229;PMS5003;50547;49.498;0.092;2024-02-26T14:29:52;7;7;
64229;PMS5003;50547;49.498;0.092;2024-02-26T14:32:21;7;7;
64229;PMS5003;50547;49.498;0.092;2024-02-26T14:34:50;9;9;
64229;PMS5003;50547;49.498;0.092;2024-02-26T14:37:19;7;7;
64229;PMS5003;50547;49.498;0.092;2024-02-26T14:39:48;10;10;
64229;PMS5003;50547;49.498;0.092;2024-02-26T14:42:17;7;7;
64229;PMS5003;50547;49.498;0.092;2024-02-26T14:44:46;7;7;
64229;PMS5003;50547;49.498;0.092;2024-02-26T14:47:25;7;7;
64229;PMS5003;50547;49.498;0.092;2024-02-26T14:49:54;8;8;
64229;PMS5003;50547;49.498;0.092;2024-02-26T14:52:23;6;6;
64229;PMS5003;50547;49.498;0.092;2024-02-26T14:54:52;6;6;
64229;PMS5003;50547;49.498;0.092;2024-02-26T14:57:21;6;6;
64229;PMS5003;50547;49.498;0.092;2024-02-26T14:59:50;7;7;
64229;PMS5003;50547;49.498;0.092;2024-02-26T15:02:19;7;7;
64229;PMS5003;50547;49.498;0.092;2024-02-26T15:04:48;6;6;
64229;PMS5003;50547;49.498;0.092;2024-02-26T15:07:17;6;6;
64229;PMS5003;50547;49.498;0.092;2024-02-26T15:09:47;7;7;
64229;PMS5003;50547;49.498;0.092;2024-02-26T15:12:16;6;6;
64229;PMS5003;50547;49.498;0.092;2024-02-26T15:14:44;7;7;
64229;PMS5003;50547;49.498;0.092;2024-02-26T15:17:24;8;8;
64229;PMS5003;50547;49.498;0.092;2024-02-26T15:19:54;7;7;
64229;PMS5003;50547;49.498;0.092;2024-02-26T15:22:23;7;7;
64229;PMS5003;50547;49.498;0.092;2024-02-26T15:24:49;8;8;
64229;PMS5003;50547;49.498;0.092;2024-02-26T15:27:18;6;6;
64229;PMS5003;50547;49.498;0.092;2024-02-26T15:29:47;7;7;
64229;PMS5003;50547;49.498;0.092;2024-02-26T15:32:16;8;8;
64229;PMS5003;50547;49.498;0.092;2024-02-26T15:34:45;8;8;
64229;PMS5003;50547;49.498;0.092;2024-02-26T15:37:14;8;8;
64229;PMS5003;50547;49.498;0.092;2024-02-26T15:39:42;8;8;
64229;PMS5003;50547;49.498;0.092;2024-02-26T15:42:12;7;7;
64229;PMS5003;50547;49.498;0.092;2024-02-26T15:44:41;8;8;
64229;PMS5003;50547;49.498;0.092;2024-02-26T15:47:10;7;7;
64229;PMS5003;50547;49.498;0.092;2024-02-26T15:49:38;9;9;
64229;PMS5003;50547;49.498;0.092;2024-02-26T15:52:07;8;8;
64229;PMS5003;50547;49.498;0.092;2024-02-26T15:54:37;8;8;
64229;PMS5003;50547;49.498;0.092;2024-02-26T15:57:06;8;8;
64229;PMS5003;50547;49.498;0.092;2024-02-26T15:59:35;7;7;
64229;PMS5003;50547;49.498;0.092;2024-02-26T16:02:05;8;8;
64229;PMS5003;50547;49.498;0.092;2024-02-26T16:04:34;7;7;
64229;PMS5003;50547;49.498;0.092;2024-02-26T16:07:03;9;9;
64229;PMS5003;50547;49.498;0.092;2024-02-26T16:09:34;8;8;
64229;PMS5003;50547;49.498;0.092;2024-02-26T16:12:03;7;7;
64229;PMS5003;50547;49.498;0.092;2024-02-26T16:14:48;7;7;
64229;PMS5003;50547;49.498;0.092;2024-02-26T16:17:19;7;7;
64229;PMS5003;50547;49.498;0.092;2024-02-26T16:19:54;7;7;
64229;PMS5003;50547;49.498;0.092;2024-02-26T16:22:28;8;8;
64229;PMS5003;50547;49.498;0.092;2024-02-26T16:24:57;8;8;
64229;PMS5003;50547;49.498;0.092;2024-02-26T16:27:41;9;9;
64229;PMS5003;50547;49.498;0.092;2024-02-26T16:30:10;8;8;
64229;PMS5003;50547;49.498;0.092;2024-02-26T16:32:41;7;7;
64229;PMS5003;50547;49.498;0.092;2024-02-26T16:35:10;9;9;
64229;PMS5003;50547;49.498;0.092;2024-02-26T16:37:39;7;7;
64229;PMS5003;50547;49.498;0.092;2024-02-26T16:40:09;7;7;
64229;PMS5003;50547;49.498;0.092;2024-02-26T16:42:46;7;7;
64229;PMS5003;50547;49.498;0.092;2024-02-26T16:45:15;7;7;
64229;PMS5003;50547;49.498;0.092;2024-02-26T16:47:44;8;8;
64229;PMS5003;50547;49.498;0.092;2024-02-26T16:50:14;8;8;
64229;PMS5003;50547;49.498;0.092;2024-02-26T16:52:43;8;8;
64229;PMS5003;50547;49.498;0.092;2024-02-26T16:55:12;8;8;
64229;PMS5003;50547;49.498;0.092;2024-02-26T16:57:40;10;10;
64229;PMS5003;50547;49.498;0.092;2024-02-26T17:00:10;8;8;
64229;PMS5003;50547;49.498;0.092;2024-02-26T17:02:39;8;8;
64229;PMS5003;50547;49.498;0.092;2024-02-26T17:05:08;9;9;
64229;PMS5003;50547;49.498;0.092;2024-02-26T17:07:37;9;9;
64229;PMS5003;50547;49.498;0.092;2024-02-26T17:10:07;8;8;
64229;PMS5003;50547;49.498;0.092;2024-02-26T17:12:37;8;8;
64229;PMS5003;50547;49.498;0.092;2024-02-26T17:15:06;7;7;
64229;PMS5003;50547;49.498;0.092;2024-02-26T17:17:35;8;8;
64229;PMS5003;50547;49.498;0.092;2024-02-26T17:20:05;8;8;
64229;PMS5003;50547;49.498;0.092;2024-02-26T17:22:34;8;8;
64229;PMS5003;50547;49.498;0.092;2024-02-26T17:25:04;8;8;
64229;PMS5003;50547;49.498;0.092;2024-02-26T17:27:33;9;9;
64229;PMS5003;50547;49.498;0.092;2024-02-26T17:30:02;7;7;
64229;PMS5003;50547;49.498;0.092;2024-02-26T17:32:32;9;9;
64229;PMS5003;50547;49.498;0.092;2024-02-26T17:35:01;8;8;
64229;PMS5003;50547;49.498;0.092;2024-02-26T17:37:30;10;10;
64229;PMS5003;50547;49.498;0.092;2024-02-26T17:39:59;10;10;
64229;PMS5003;50547;49.498;0.092;2024-02-26T17:42:28;10;10;
64229;PMS5003;50547;49.498;0.092;2024-02-26T17:44:57;10;10;
64229;PMS5003;50547;49.498;0.092;2024-02-26T17:47:24;9;9;
64229;PMS5003;50547;49.498;0.092;2024-02-26T17:49:52;9;9;
64229;PMS5003;50547;49.498;0.092;2024-02-26T17:52:21;10;10;
64229;PMS5003;50547;49.498;0.092;2024-02-26T17:54:50;9;9;
64229;PMS5003;50547;49.498;0.092;2024-02-26T17:57:19;10;10;
64229;PMS5003;50547;49.498;0.092;2024-02-26T17:59:48;9;9;
64229;PMS5003;50547;49.498;0.092;2024-02-26T18:02:18;8;8;
64229;PMS5003;50547;49.498;0.092;2024-02-26T18:04:47;8;8;
64229;PMS5003;50547;49.498;0.092;2024-02-26T18:07:16;8;8;
64229;PMS5003;50547;49.498;0.092;2024-02-26T18:09:45;9;9;
64229;PMS5003;50547;49.498;0.092;2024-02-26T18:12:14;10;10;
64229;PMS5003;50547;49.498;0.092;2024-02-26T18:14:43;10;10;
64229;PMS5003;50547;49.498;0.092;2024-02-26T18:17:12;9;9;
64229;PMS5003;50547;49.498;0.092;2024-02-26T18:19:41;10;10;
64229;PMS5003;50547;49.498;0.092;2024-02-26T18:22:10;8;8;
64229;PMS5003;50547;49.498;0.092;2024-02-26T18:24:39;7;7;
64229;PMS5003;50547;49.498;0.092;2024-02-26T18:27:07;10;10;
64229;PMS5003;50547;49.498;0.092;2024-02-26T18:29:34;10;10;
64229;PMS5003;50547;49.498;0.092;2024-02-26T18:32:04;8;8;
64229;PMS5003;50547;49.498;0.092;2024-02-26T18:34:34;8;8;
64229;PMS5003;50547;49.498;0.092;2024-02-26T18:37:03;7;7;
64229;PMS5003;50547;49.498;0.092;2024-02-26T18:39:32;10;10;
64229;PMS5003;50547;49.498;0.092;2024-02-26T18:42:01;10;10;
64229;PMS5003;50547;49.498;0.092;2024-02-26T18:44:30;8;8;
64229;PMS5003;50547;49.498;0.092;2024-02-26T18:46:59;7;7;
64229;PMS5003;50547;49.498;0.092;2024-02-26T18:49:28;8;8;
64229;PMS5003;50547;49.498;0.092;2024-02-26T18:51:57;8;8;
64229;PMS5003;50547;49.498;0.092;2024-02-26T18:54:26;8;8;
64229;PMS5003;50547;49.498;0.092;2024-02-26T18:56:55;8;8;
64229;PMS5003;50547;49.498;0.092;2024-02-26T18:59:24;8;8;
64229;PMS5003;50547;49.498;0.092;2024-02-26T19:01:53;7;7;
64229;PMS5003;50547;49.498;0.092;2024-02-26T19:04:22;7;7;
64229;PMS5003;50547;49.498;0.092;2024-02-26T19:06:51;7;7;
64229;PMS5003;50547;49.498;0.092;2024-02-26T19:09:25;7;7;
64229;PMS5003;50547;49.498;0.092;2024-02-26T19:11:54;8;8;
64229;PMS5003;50547;49.498;0.092;2024-02-26T19:14:22;8;8;
64229;PMS5003;50547;49.498;0.092;2024-02-26T19:16:52;7;7;
64229;PMS5003;50547;49.498;0.092;2024-02-26T19:19:21;7;7;
64229;PMS5003;50547;49.498;0.092;2024-02-26T19:21:51;10;10;
64229;PMS5003;50547;49.498;0.092;2024-02-26T19:24:20;8;8;
64229;PMS5003;50547;49.498;0.092;2024-02-26T19:26:48;8;8;
64229;PMS5003;50547;49.498;0.092;2024-02-26T19:29:17;8;8;
64229;PMS5003;50547;49.498;0.092;2024-02-26T19:31:46;8;8;
64229;PMS5003;50547;49.498;0.092;2024-02-26T19:34:15;8;8;
64229;PMS5003;50547;49.498;0.092;2024-02-26T19:36:44;10;10;
64229;PMS5003;50547;49.498;0.092;2024-02-26T19:39:14;10;10;
64229;PMS5003;50547;49.498;0.092;2024-02-26T19:41:42;8;8;
64229;PMS5003;50547;49.498;0.092;2024-02-26T19:44:11;10;10;
64229;PMS5003;50547;49.498;0.092;2024-02-26T19:46:40;8;8;
64229;PMS5003;50547;49.498;0.092;2024-02-26T19:49:09;8;8;
64229;PMS5003;50547;49.498;0.092;2024-02-26T19:51:38;8;8;
64229;PMS5003;50547;49.498;0.092;2024-02-26T19:54:07;8;8;
64229;PMS5003;50547;49.498;0.092;2024-02-26T19:56:36;9;9;
64229;PMS5003;50547;49.498;0.092;2024-02-26T19:59:05;8;8;
64229;PMS5003;50547;49.498;0.092;2024-02-26T20:01:34;7;7;
64229;PMS5003;50547;49.498;0.092;2024-02-26T20:04:03;8;8;
64229;PMS5003;50547;49.498;0.092;2024-02-26T20:06:32;9;9;
64229;PMS5003;50547;49.498;0.092;2024-02-26T20:09:01;9;9;
64229;PMS5003;50547;49.498;0.092;2024-02-26T20:11:30;9;9;
64229;PMS5003;50547;49.498;0.092;2024-02-26T20:13:59;9;9;
64229;PMS5003;50547;49.498;0.092;2024-02-26T20:16:28;8;8;
64229;PMS5003;50547;49.498;0.092;2024-02-26T20:18:57;8;8;
64229;PMS5003;50547;49.498;0.092;2024-02-26T20:21:26;10;10;
64229;PMS5003;50547;49.498;0.092;2024-02-26T20:23:56;7;7;
64229;PMS5003;50547;49.498;0.092;2024-02-26T20:26:24;9;9;
64229;PMS5003;50547;49.498;0.092;2024-02-26T20:28:53;8;8;
64229;PMS5003;50547;49.498;0.092;2024-02-26T20:31:22;8;8;
64229;PMS5003;50547;49.498;0.092;2024-02-26T20:33:51;8;8;
64229;PMS5003;50547;49.498;0.092;2024-02-26T20:36:21;8;8;
64229;PMS5003;50547;49.498;0.092;2024-02-26T20:38:50;7;7;
64229;PMS5003;50547;49.498;0.092;2024-02-26T20:41:19;8;8;
64229;PMS5003;50547;49.498;0.092;2024-02-26T20:43:48;8;8;
64229;PMS5003;50547;49.498;0.092;2024-02-26T20:46:17;7;7;
64229;PMS5003;50547;49.498;0.092;2024-02-26T20:48:46;7;7;
64229;PMS5003;50547;49.498;0.092;2024-02-26T20:51:15;7;7;
64229;PMS5003;50547;49.498;0.092;2024-02-26T20:53:44;8;8;
64229;PMS5003;50547;49.498;0.092;2024-02-26T20:56:13;7;7;
64229;PMS5003;50547;49.498;0.092;2024-02-26T20:58:42;8;8;
64229;PMS5003;50547;49.498;0.092;2024-02-26T21:01:11;8;8;
64229;PMS5003;50547;49.498;0.092;2024-02-26T21:03:40;7;7;
64229;PMS5003;50547;49.498;0.092;2024-02-26T21:06:09;8;8;
64229;PMS5003;50547;49.498;0.092;2024-02-26T21:08:38;8;8;
64229;PMS5003;50547;49.498;0.092;2024-02-26T21:11:07;8;8;
64229;PMS5003;50547;49.498;0.092;2024-02-26T21:13:38;7;7;
64229;PMS5003;50547;49.498;0.092;2024-02-26T21:16:17;7;7;
64229;PMS5003;50547;49.498;0.092;2024-02-26T21:18:46;8;8;
64229;PMS5003;50547;49.498;0.092;2024-02-26T21:21:14;8;8;
64229;PMS5003;50547;49.498;0.092;2024-02-26T21:23:40;8;8;
64229;PMS5003;50547;49.498;0.092;2024-02-26T21:26:09;8;8;
64229;PMS5003;50547;49.498;0.092;2024-02-26T21:28:40;7;7;
64229;PMS5003;50547;49.498;0.092;2024-02-26T21:31:08;7;7;
64229;PMS5003;50547;49.498;0.092;2024-02-26T21:33:34;8;8;
64229;PMS5003;50547;49.498;0.092;2024-02-26T21:36:04;7;7;
64229;PMS5003;50547;49.498;0.092;2024-02-26T21:38:33;7;7;
64229;PMS5003;50547;49.498;0.092;2024-02-26T21:41:02;7;7;
64229;PMS5003;50547;49.498;0.092;2024-02-26T21:43:29;8;8;
64229;PMS5003;50547;49.498;0.092;2024-02-26T21:45:58;7;7;
64229;PMS5003;50547;49.498;0.092;2024-02-26T21:48:27;7;7;
64229;PMS5003;50547;49.498;0.092;2024-02-26T21:50:56;7;7;
64229;PMS5003;50547;49.498;0.092;2024-02-26T21:53:25;7;7;
64229;PMS5003;50547;49.498;0.092;2024-02-26T21:56:06;8;8;
64229;PMS5003;50547;49.498;0.092;2024-02-26T21:58:40;7;7;
64229;PMS5003;50547;49.498;0.092;2024-02-26T22:01:09;7;7;
64229;PMS5003;50547;49.498;0.092;2024-02-26T22:03:38;8;8;
64229;PMS5003;50547;49.498;0.092;2024-02-26T22:06:08;8;8;
64229;PMS5003;50547;49.498;0.092;2024-02-26T22:08:37;7;7;
64229;PMS5003;50547;49.498;0.092;2024-02-26T22:11:06;8;8;
64229;PMS5003;50547;49.498;0.092;2024-02-26T22:13:34;8;8;
64229;PMS5003;50547;49.498;0.092;2024-02-26T22:16:04;8;8;
64229;PMS5003;50547;49.498;0.092;2024-02-26T22:18:33;8;8;
64229;PMS5003;50547;49.498;0.092;2024-02-26T22:21:02;7;7;
64229;PMS5003;50547;49.498;0.092;2024-02-26T22:23:31;8;8;
64229;PMS5003;50547;49.498;0.092;2024-02-26T22:26:00;7;7;
64229;PMS5003;50547;49.498;0.092;2024-02-26T22:28:29;8;8;
64229;PMS5003;50547;49.498;0.092;2024-02-26T22:30:58;8;8;
64229;PMS5003;50547;49.498;0.092;2024-02-26T22:33:27;7;7;
64229;PMS5003;50547;49.498;0.092;2024-02-26T22:36:01;6;6;
64229;PMS5003;50547;49.498;0.092;2024-02-26T22:38:30;7;7;
64229;PMS5003;50547;49.498;0.092;2024-02-26T22:41:04;6;6;
64229;PMS5003;50547;49.498;0.092;2024-02-26T22:43:33;7;7;
64229;PMS5003;50547;49.498;0.092;2024-02-26T22:45:59;7;7;
64229;PMS5003;50547;49.498;0.092;2024-02-26T22:48:28;7;7;
64229;PMS5003;50547;49.498;0.092;2024-02-26T22:50:56;5;5;
64229;PMS5003;50547;49.498;0.092;2024-02-26T22:53:25;6;6;
64229;PMS5003;50547;49.498;0.092;2024-02-26T22:55:54;7;7;
64229;PMS5003;50547;49.498;0.092;2024-02-26T22:58:23;7;7;
64229;PMS5003;50547;49.498;0.092;2024-02-26T23:00:52;7;7;
64229;PMS5003;50547;49.498;0.092;2024-02-26T23:03:21;6;6;
64229;PMS5003;50547;49.498;0.092;2024-02-26T23:05:50;7;7;
64229;PMS5003;50547;49.498;0.092;2024-02-26T23:08:19;6;6;
64229;PMS5003;50547;49.498;0.092;2024-02-26T23:10:48;5;5;
64229;PMS5003;50547;49.498;0.092;2024-02-26T23:13:17;4;4;
64229;PMS5003;50547;49.498;0.092;2024-02-26T23:15:46;5;5;
64229;PMS5003;50547;49.498;0.092;2024-02-26T23:18:14;7;7;
64229;PMS5003;50547;49.498;0.092;2024-02-26T23:20:43;7;7;
64229;PMS5003;50547;49.498;0.092;2024-02-26T23:23:12;6;6;
64229;PMS5003;50547;49.498;0.092;2024-02-26T23:25:41;5;5;
64229;PMS5003;50547;49.498;0.092;2024-02-26T23:28:10;5;5;
64229;PMS5003;50547;49.498;0.092;2024-02-26T23:30:39;5;5;
64229;PMS5003;50547;49.498;0.092;2024-02-26T23:33:08;6;6;
64229;PMS5003;50547;49.498;0.092;2024-02-26T23:35:37;6;6;
64229;PMS5003;50547;49.498;0.092;2024-02-26T23:38:06;6;6;
64229;PMS5003;50547;49.498;0.092;2024-02-26T23:40:34;5;5;
64229;PMS5003;50547;49.498;0.092;2024-02-26T23:43:00;6;6;
64229;PMS5003;50547;49.498;0.092;2024-02-26T23:45:30;5;5;
64229;PMS5003;50547;49.498;0.092;2024-02-26T23:47:59;7;7;
64229;PMS5003;50547;49.498;0.092;2024-02-26T23:50:28;7;7;
64229;PMS5003;50547;49.498;0.092;2024-02-26T23:52:57;5;5;
64229;PMS5003;50547;49.498;0.092;2024-02-26T23:55:26;6;6;
64229;PMS5003;50547;49.498;0.092;2024-02-26T23:57:55;5;5;
